Time;durP1;ratioP1;P1;durP2;ratioP2;P2;SDS_P1;SDS_P2;PMS_P1;PMS_P2;Temp;Humidity;BMP_temperature;BMP_pressure;BME280_temperature;BME280_humidity;BME280_pressure;Samples;Min_cycle;Max_cycle;Signal;HPM_P1;HPM_P2
2022/10/27 00:00:18;;;;;;;17.80;11.13;;;;;;;;;;5008738;28;20049;-62
2022/10/27 00:02:44;;;;;;;22.47;12.17;;;;;;;;;;5007735;28;20515;-61
2022/10/27 00:05:10;;;;;;;23.90;13.50;;;;;;;;;;5018383;28;20137;-61
2022/10/27 00:07:37;;;;;;;25.23;13.00;;;;;;;;;;5027767;28;20053;-62
2022/10/27 00:10:04;;;;;;;23.27;11.97;;;;;;;;;;5028381;28;20045;-62
2022/10/27 00:12:30;;;;;;;21.30;11.13;;;;;;;;;;5028129;28;20052;-62
2022/10/27 00:14:56;;;;;;;20.07;12.17;;;;;;;;;;5027923;28;20042;-62
2022/10/27 00:17:22;;;;;;;21.80;12.43;;;;;;;;;;5027724;28;20393;-61
2022/10/27 00:19:48;;;;;;;16.30;11.53;;;;;;;;;;5021092;28;20808;-61
2022/10/27 00:22:14;;;;;;;26.27;13.97;;;;;;;;;;5008412;28;20049;-62
2022/10/27 00:24:41;;;;;;;23.20;11.67;;;;;;;;;;5007800;28;20046;-62
2022/10/27 00:27:10;;;;;;;23.57;11.47;;;;;;;;;;5008509;28;20052;-62
2022/10/27 00:29:36;;;;;;;21.57;10.77;;;;;;;;;;5008296;28;20487;-62
2022/10/27 00:32:02;;;;;;;23.67;11.17;;;;;;;;;;5008380;28;20041;-62
2022/10/27 00:34:28;;;;;;;24.73;11.43;;;;;;;;;;5012405;28;20038;-62
2022/10/27 00:36:54;;;;;;;20.33;10.87;;;;;;;;;;5026184;28;20049;-62
2022/10/27 00:39:20;;;;;;;21.23;10.57;;;;;;;;;;5007140;28;20048;-62
2022/10/27 00:41:46;;;;;;;16.67;10.03;;;;;;;;;;5008297;28;20046;-62
2022/10/27 00:44:30;;;;;;;22.70;11.33;;;;;;;;;;5008376;28;20042;-62
2022/10/27 00:46:57;;;;;;;21.67;10.77;;;;;;;;;;5007955;28;20046;-62
2022/10/27 00:49:28;;;;;;;22.63;11.07;;;;;;;;;;5011443;28;20509;-62
2022/10/27 00:51:59;;;;;;;22.37;11.80;;;;;;;;;;5027362;28;20046;-62
2022/10/27 00:54:27;;;;;;;19.37;10.97;;;;;;;;;;5027988;28;20042;-61
2022/10/27 00:56:53;;;;;;;17.67;10.73;;;;;;;;;;5027806;28;20079;-62
2022/10/27 00:59:20;;;;;;;22.17;10.80;;;;;;;;;;5027681;28;20073;-62
2022/10/27 01:01:47;;;;;;;19.17;11.53;;;;;;;;;;5028071;28;20446;-62
2022/10/27 01:04:14;;;;;;;23.93;10.63;;;;;;;;;;5025753;28;20042;-62
2022/10/27 01:06:40;;;;;;;19.73;11.37;;;;;;;;;;5027765;28;20046;-62
2022/10/27 01:09:07;;;;;;;21.67;11.30;;;;;;;;;;5026557;28;20041;-62
2022/10/27 01:11:33;;;;;;;23.07;11.57;;;;;;;;;;5027193;28;20053;-61
2022/10/27 01:13:59;;;;;;;21.60;11.33;;;;;;;;;;5008165;28;20562;-62
2022/10/27 01:16:40;;;;;;;21.47;10.80;;;;;;;;;;5007678;28;20571;-62
2022/10/27 01:19:09;;;;;;;21.70;10.67;;;;;;;;;;5008142;28;20050;-62
2022/10/27 01:21:47;;;;;;;21.93;11.20;;;;;;;;;;5011352;28;20566;-62
2022/10/27 01:24:16;;;;;;;20.37;11.30;;;;;;;;;;5010113;28;20045;-62
2022/10/27 01:26:50;;;;;;;23.17;9.97;;;;;;;;;;5019227;28;20534;-62
2022/10/27 01:29:21;;;;;;;21.48;11.40;;;;;;;;;;5030674;28;20080;-62
2022/10/27 01:31:57;;;;;;;20.27;10.57;;;;;;;;;;5029850;28;20054;-62
2022/10/27 01:34:44;;;;;;;23.23;11.30;;;;;;;;;;5030266;28;20085;-62
2022/10/27 01:37:12;;;;;;;18.90;10.63;;;;;;;;;;5030589;28;20591;-62
2022/10/27 01:39:45;;;;;;;23.57;10.70;;;;;;;;;;5030843;28;20042;-62
2022/10/27 01:42:18;;;;;;;22.63;12.15;;;;;;;;;;5018814;28;20046;-62
2022/10/27 01:44:47;;;;;;;25.00;11.70;;;;;;;;;;5012008;28;20120;-62
2022/10/27 01:47:14;;;;;;;26.97;12.20;;;;;;;;;;5010998;28;20526;-62
2022/10/27 01:49:41;;;;;;;18.57;10.87;;;;;;;;;;5009632;28;20038;-62
2022/10/27 01:52:27;;;;;;;22.67;10.87;;;;;;;;;;5010288;28;20419;-62
2022/10/27 01:54:54;;;;;;;23.37;11.43;;;;;;;;;;5010623;28;20052;-61
2022/10/27 01:57:27;;;;;;;22.20;11.77;;;;;;;;;;5010784;28;20042;-62
2022/10/27 02:00:06;;;;;;;27.27;12.13;;;;;;;;;;5010847;28;20417;-62
2022/10/27 02:02:47;;;;;;;27.47;12.07;;;;;;;;;;5023186;28;20050;-62
2022/10/27 02:05:34;;;;;;;21.50;11.30;;;;;;;;;;5019435;28;20053;-62
2022/10/27 02:08:14;;;;;;;27.63;12.90;;;;;;;;;;5010362;28;20049;-62
2022/10/27 02:10:43;;;;;;;26.33;13.50;;;;;;;;;;5010564;28;20049;-62
2022/10/27 02:13:09;;;;;;;25.00;12.43;;;;;;;;;;5009770;28;20046;-62
2022/10/27 02:15:54;;;;;;;18.67;12.53;;;;;;;;;;5010355;28;20048;-62
2022/10/27 02:18:23;;;;;;;26.60;13.57;;;;;;;;;;5011004;28;20088;-62
2022/10/27 02:20:51;;;;;;;28.20;13.33;;;;;;;;;;5010044;28;20053;-62
2022/10/27 02:23:18;;;;;;;21.37;12.73;;;;;;;;;;5010266;28;20048;-62
2022/10/27 02:25:58;;;;;;;27.27;15.00;;;;;;;;;;5010401;28;20050;-62
2022/10/27 02:28:27;;;;;;;22.67;13.13;;;;;;;;;;5010221;28;20048;-62
2022/10/27 02:30:56;;;;;;;23.63;14.13;;;;;;;;;;5009193;28;20042;-62
2022/10/27 02:33:22;;;;;;;26.17;13.20;;;;;;;;;;5010056;28;20474;-62
2022/10/27 02:35:48;;;;;;;27.77;14.20;;;;;;;;;;5024167;28;20613;-62
2022/10/27 02:38:14;;;;;;;29.77;14.00;;;;;;;;;;5029161;28;20085;-62
2022/10/27 02:40:40;;;;;;;23.33;14.60;;;;;;;;;;5029310;28;20084;-62
2022/10/27 02:43:06;;;;;;;25.50;14.70;;;;;;;;;;5029780;28;20053;-62
2022/10/27 02:45:32;;;;;;;27.53;13.47;;;;;;;;;;5029547;28;20573;-62
2022/10/27 02:47:58;;;;;;;24.17;13.40;;;;;;;;;;5029537;28;20045;-62
2022/10/27 02:50:24;;;;;;;23.47;13.37;;;;;;;;;;5029589;28;20510;-62
2022/10/27 02:52:50;;;;;;;24.30;13.50;;;;;;;;;;5028794;28;20049;-62
2022/10/27 02:55:16;;;;;;;23.93;13.40;;;;;;;;;;5029453;28;20100;-62
2022/10/27 02:57:42;;;;;;;19.90;12.13;;;;;;;;;;5016980;28;20056;-62
2022/10/27 03:00:08;;;;;;;22.87;11.87;;;;;;;;;;5009403;28;20053;-62
2022/10/27 03:02:34;;;;;;;22.10;11.53;;;;;;;;;;5009507;28;20435;-62
2022/10/27 03:05:02;;;;;;;22.83;11.57;;;;;;;;;;5016987;28;20045;-62
2022/10/27 03:07:28;;;;;;;21.93;12.53;;;;;;;;;;5029286;28;20045;-62
2022/10/27 03:09:54;;;;;;;23.33;12.27;;;;;;;;;;5029001;28;20064;-61
2022/10/27 03:12:20;;;;;;;19.53;12.07;;;;;;;;;;5029125;28;20045;-62
2022/10/27 03:14:46;;;;;;;23.00;11.70;;;;;;;;;;5028798;28;20045;-62
2022/10/27 03:17:12;;;;;;;19.60;10.83;;;;;;;;;;5028784;28;20419;-62
2022/10/27 03:19:38;;;;;;;22.77;12.50;;;;;;;;;;5029173;28;20132;-62
2022/10/27 03:22:04;;;;;;;25.93;12.50;;;;;;;;;;5028881;28;20041;-61
2022/10/27 03:24:30;;;;;;;23.37;12.27;;;;;;;;;;5029081;28;20114;-61
2022/10/27 03:26:56;;;;;;;20.27;11.93;;;;;;;;;;5022212;28;20091;-62
2022/10/27 03:29:22;;;;;;;20.27;11.77;;;;;;;;;;5009158;28;20050;-62
2022/10/27 03:31:48;;;;;;;27.77;13.33;;;;;;;;;;5009200;28;20046;-62
2022/10/27 03:34:14;;;;;;;25.20;13.13;;;;;;;;;;5010040;28;20046;-61
2022/10/27 03:36:40;;;;;;;24.67;12.13;;;;;;;;;;5027562;28;20053;-62
2022/10/27 03:39:06;;;;;;;24.80;12.60;;;;;;;;;;5026953;28;20144;-62
2022/10/27 03:41:32;;;;;;;22.23;13.53;;;;;;;;;;5028415;28;20058;-61
2022/10/27 03:43:58;;;;;;;24.27;13.83;;;;;;;;;;5028728;28;20490;-62
2022/10/27 03:46:24;;;;;;;27.97;13.50;;;;;;;;;;5028542;28;20050;-62
2022/10/27 03:48:50;;;;;;;23.67;13.43;;;;;;;;;;5028062;28;20056;-62
2022/10/27 03:51:16;;;;;;;29.13;14.17;;;;;;;;;;5028319;28;20091;-62
2022/10/27 03:53:42;;;;;;;25.60;14.20;;;;;;;;;;5028476;28;20049;-62
2022/10/27 03:56:09;;;;;;;25.43;14.27;;;;;;;;;;5027152;28;20124;-62
2022/10/27 03:58:35;;;;;;;23.20;12.60;;;;;;;;;;5008044;28;20460;-62
2022/10/27 04:01:02;;;;;;;22.10;13.00;;;;;;;;;;5008701;28;20412;-62
2022/10/27 04:03:28;;;;;;;28.13;14.43;;;;;;;;;;5011433;28;20053;-62
2022/10/27 04:05:54;;;;;;;29.60;14.60;;;;;;;;;;5012908;28;20042;-62
2022/10/27 04:08:20;;;;;;;28.00;15.50;;;;;;;;;;5008342;28;20057;-62
2022/10/27 04:10:46;;;;;;;26.97;14.97;;;;;;;;;;5008506;28;20107;-62
2022/10/27 04:13:12;;;;;;;35.93;16.67;;;;;;;;;;5009426;28;20046;-62
2022/10/27 04:15:38;;;;;;;28.53;15.70;;;;;;;;;;5008464;28;20155;-62
2022/10/27 04:18:04;;;;;;;29.33;15.33;;;;;;;;;;5008377;28;20088;-62
2022/10/27 04:20:30;;;;;;;31.13;16.07;;;;;;;;;;5008303;28;20580;-62
2022/10/27 04:22:59;;;;;;;34.80;16.60;;;;;;;;;;5007480;28;20054;-62
2022/10/27 04:25:26;;;;;;;32.13;17.37;;;;;;;;;;5008012;28;20520;-62
2022/10/27 04:28:00;;;;;;;31.90;15.47;;;;;;;;;;5023368;28;20045;-62
2022/10/27 04:30:26;;;;;;;30.00;15.57;;;;;;;;;;5028294;28;20049;-62
2022/10/27 04:32:52;;;;;;;30.63;18.10;;;;;;;;;;5028097;28;20099;-62
2022/10/27 04:35:18;;;;;;;29.10;15.33;;;;;;;;;;5025729;28;20650;-62
2022/10/27 04:37:44;;;;;;;25.03;15.80;;;;;;;;;;5027908;28;20053;-62
2022/10/27 04:40:10;;;;;;;30.50;16.57;;;;;;;;;;5026395;28;20072;-62
2022/10/27 04:42:36;;;;;;;29.10;17.50;;;;;;;;;;5015382;28;20042;-62
2022/10/27 04:45:02;;;;;;;33.30;19.13;;;;;;;;;;5007316;28;20563;-62
2022/10/27 04:47:28;;;;;;;31.00;16.90;;;;;;;;;;5008373;28;20053;-62
2022/10/27 04:49:54;;;;;;;29.17;16.40;;;;;;;;;;5007100;28;20087;-62
2022/10/27 04:52:20;;;;;;;33.27;16.83;;;;;;;;;;5010959;28;20049;-62
2022/10/27 04:54:46;;;;;;;34.03;17.57;;;;;;;;;;5023057;28;20400;-61
2022/10/27 04:57:12;;;;;;;30.37;16.57;;;;;;;;;;5032147;28;20058;-62
2022/10/27 04:59:38;;;;;;;27.23;15.73;;;;;;;;;;5011451;28;20188;-62
2022/10/27 05:02:04;;;;;;;30.43;17.00;;;;;;;;;;5022218;28;20501;-62
2022/10/27 05:04:30;;;;;;;25.70;15.97;;;;;;;;;;5030856;28;20046;-62
2022/10/27 05:06:56;;;;;;;31.63;18.80;;;;;;;;;;5031449;28;20128;-62
2022/10/27 05:09:22;;;;;;;32.87;18.10;;;;;;;;;;5029614;28;20621;-62
2022/10/27 05:11:48;;;;;;;33.17;18.17;;;;;;;;;;5027184;28;20069;-62
2022/10/27 05:14:14;;;;;;;27.97;17.87;;;;;;;;;;5028173;28;20091;-62
2022/10/27 05:16:40;;;;;;;26.80;16.90;;;;;;;;;;5020298;28;20038;-62
2022/10/27 05:19:06;;;;;;;24.40;17.20;;;;;;;;;;5015575;28;20037;-62
2022/10/27 05:21:32;;;;;;;29.23;18.60;;;;;;;;;;5017626;28;20520;-62
2022/10/27 05:23:58;;;;;;;32.73;18.37;;;;;;;;;;5020505;28;20075;-62
2022/10/27 05:26:24;;;;;;;38.43;18.83;;;;;;;;;;5019182;28;20089;-62
2022/10/27 05:28:50;;;;;;;28.77;17.33;;;;;;;;;;5020351;28;20085;-62
2022/10/27 05:31:16;;;;;;;23.53;17.43;;;;;;;;;;5018916;28;20045;-62
2022/10/27 05:33:42;;;;;;;26.43;17.83;;;;;;;;;;5017904;28;20482;-62
2022/10/27 05:36:08;;;;;;;35.30;17.33;;;;;;;;;;5020636;28;20057;-62
2022/10/27 05:38:36;;;;;;;30.57;18.83;;;;;;;;;;5016567;28;20045;-62
2022/10/27 05:41:03;;;;;;;28.43;17.83;;;;;;;;;;5021047;28;20061;-62
2022/10/27 05:43:29;;;;;;;27.23;18.20;;;;;;;;;;5012399;28;20045;-62
2022/10/27 05:45:55;;;;;;;26.63;17.00;;;;;;;;;;5011016;28;20056;-62
2022/10/27 05:48:21;;;;;;;28.20;17.47;;;;;;;;;;5013264;28;20419;-62
2022/10/27 05:50:52;;;;;;;22.30;16.03;;;;;;;;;;5010557;28;20046;-62
2022/10/27 05:53:18;;;;;;;28.97;17.37;;;;;;;;;;5010560;28;20057;-62
2022/10/27 05:55:44;;;;;;;26.07;16.70;;;;;;;;;;5010551;28;20387;-62
2022/10/27 05:58:10;;;;;;;29.10;16.77;;;;;;;;;;5010905;28;20041;-62
2022/10/27 06:00:37;;;;;;;23.47;16.73;;;;;;;;;;5009267;28;20042;-62
2022/10/27 06:03:05;;;;;;;21.60;14.63;;;;;;;;;;5010699;28;20091;-62
2022/10/27 06:05:31;;;;;;;25.63;15.60;;;;;;;;;;5009558;28;20088;-62
2022/10/27 06:07:58;;;;;;;23.60;15.23;;;;;;;;;;4993179;28;20042;-62
2022/10/27 06:10:24;;;;;;;27.70;16.57;;;;;;;;;;5010488;28;20049;-62
2022/10/27 06:12:50;;;;;;;26.70;16.13;;;;;;;;;;5009183;28;20465;-62
2022/10/27 06:15:16;;;;;;;22.00;16.13;;;;;;;;;;5025641;28;20128;-62
2022/10/27 06:17:42;;;;;;;21.67;15.67;;;;;;;;;;5022668;28;20413;-62
2022/10/27 06:20:09;;;;;;;20.57;13.77;;;;;;;;;;5020108;28;20502;-62
2022/10/27 06:22:35;;;;;;;25.63;15.13;;;;;;;;;;5029674;28;20048;-62
2022/10/27 06:25:01;;;;;;;23.17;15.23;;;;;;;;;;5029788;28;20046;-62
2022/10/27 06:27:27;;;;;;;25.83;14.97;;;;;;;;;;5029232;28;20092;-62
2022/10/27 06:29:53;;;;;;;24.83;15.37;;;;;;;;;;5029917;28;20479;-62
2022/10/27 06:32:19;;;;;;;21.80;13.90;;;;;;;;;;5028351;28;20045;-62
2022/10/27 06:34:45;;;;;;;25.13;13.67;;;;;;;;;;5029143;28;20415;-62
2022/10/27 06:37:11;;;;;;;21.80;13.50;;;;;;;;;;5027650;28;20058;-62
2022/10/27 06:39:40;;;;;;;20.03;14.07;;;;;;;;;;5028814;28;20119;-62
2022/10/27 06:42:06;;;;;;;25.43;14.67;;;;;;;;;;5029403;28;20046;-62
2022/10/27 06:44:32;;;;;;;25.77;13.87;;;;;;;;;;5028752;28;20071;-62
2022/10/27 06:46:58;;;;;;;28.70;13.30;;;;;;;;;;5029218;28;20041;-62
2022/10/27 06:49:24;;;;;;;22.47;13.70;;;;;;;;;;5028765;28;20403;-62
2022/10/27 06:51:50;;;;;;;23.13;13.90;;;;;;;;;;5027527;28;20054;-62
2022/10/27 06:54:16;;;;;;;24.17;14.03;;;;;;;;;;5028880;28;20044;-62
2022/10/27 06:56:42;;;;;;;22.40;13.17;;;;;;;;;;5028877;28;20038;-62
2022/10/27 06:59:08;;;;;;;19.90;13.63;;;;;;;;;;5028414;28;20041;-62
2022/10/27 07:01:34;;;;;;;21.00;12.93;;;;;;;;;;5028445;28;20049;-62
2022/10/27 07:04:00;;;;;;;26.20;13.13;;;;;;;;;;5028663;28;20041;-62
2022/10/27 07:06:26;;;;;;;22.87;11.97;;;;;;;;;;5028708;28;20048;-61
2022/10/27 07:08:52;;;;;;;19.83;12.57;;;;;;;;;;5028514;28;20053;-62
2022/10/27 07:11:18;;;;;;;24.63;11.33;;;;;;;;;;5027879;28;20120;-62
2022/10/27 07:13:44;;;;;;;18.20;10.77;;;;;;;;;;5027386;28;20587;-61
2022/10/27 07:16:10;;;;;;;20.07;10.13;;;;;;;;;;5028402;28;20128;-62
2022/10/27 07:18:37;;;;;;;20.53;11.03;;;;;;;;;;5027610;28;20041;-65
2022/10/27 07:21:04;;;;;;;20.07;11.07;;;;;;;;;;5027932;28;20192;-61
2022/10/27 07:23:30;;;;;;;20.03;10.70;;;;;;;;;;5028170;28;20108;-62
2022/10/27 07:25:56;;;;;;;18.43;10.47;;;;;;;;;;5028552;28;20049;-62
2022/10/27 07:28:22;;;;;;;21.50;10.90;;;;;;;;;;5027787;28;20053;-62
2022/10/27 07:30:48;;;;;;;21.37;10.57;;;;;;;;;;5028279;28;20053;-62
2022/10/27 07:33:14;;;;;;;17.50;10.07;;;;;;;;;;5026882;28;20041;-62
2022/10/27 07:35:41;;;;;;;16.77;10.20;;;;;;;;;;5028273;28;20057;-62
2022/10/27 07:38:07;;;;;;;19.47;9.70;;;;;;;;;;5028091;28;20582;-62
2022/10/27 07:40:33;;;;;;;20.50;8.60;;;;;;;;;;5027568;28;20103;-62
2022/10/27 07:43:00;;;;;;;14.30;8.60;;;;;;;;;;5027123;28;20075;-62
2022/10/27 07:45:26;;;;;;;18.97;8.80;;;;;;;;;;5028319;28;20112;-62
2022/10/27 07:47:53;;;;;;;14.70;8.27;;;;;;;;;;5028101;28;20056;-62
2022/10/27 07:50:21;;;;;;;20.13;8.33;;;;;;;;;;5028033;28;20716;-61
2022/10/27 07:52:51;;;;;;;22.43;9.50;;;;;;;;;;5027811;28;20114;-62
2022/10/27 07:55:18;;;;;;;18.10;8.37;;;;;;;;;;5028096;28;20160;-62
2022/10/27 07:57:45;;;;;;;13.77;8.17;;;;;;;;;;5027817;28;20079;-62
2022/10/27 08:00:13;;;;;;;17.00;8.37;;;;;;;;;;5027872;28;20415;-62
2022/10/27 08:02:39;;;;;;;16.00;7.20;;;;;;;;;;5027531;28;20109;-62
2022/10/27 08:05:05;;;;;;;18.67;7.40;;;;;;;;;;5027961;28;20054;-61
2022/10/27 08:07:31;;;;;;;10.57;6.67;;;;;;;;;;5027800;28;20060;-62
2022/10/27 08:09:57;;;;;;;12.37;7.00;;;;;;;;;;5027638;28;20478;-62
2022/10/27 08:12:24;;;;;;;14.00;6.97;;;;;;;;;;5027627;28;20045;-62
2022/10/27 08:14:50;;;;;;;12.03;6.47;;;;;;;;;;5027371;28;20535;-62
2022/10/27 08:17:16;;;;;;;17.53;6.93;;;;;;;;;;5027622;28;20046;-62
2022/10/27 08:19:42;;;;;;;16.23;6.43;;;;;;;;;;5027381;28;20053;-62
2022/10/27 08:22:08;;;;;;;16.70;6.70;;;;;;;;;;5027795;28;20415;-62
2022/10/27 08:24:34;;;;;;;12.53;6.97;;;;;;;;;;5027444;28;20490;-62
2022/10/27 08:27:00;;;;;;;14.57;7.87;;;;;;;;;;5027012;28;20045;-62
2022/10/27 08:29:27;;;;;;;10.00;6.37;;;;;;;;;;5030609;28;20531;-62
2022/10/27 08:31:53;;;;;;;14.03;6.80;;;;;;;;;;5031902;28;20052;-62
2022/10/27 08:34:19;;;;;;;14.33;6.70;;;;;;;;;;5031170;28;20410;-62
2022/10/27 08:36:45;;;;;;;13.53;6.57;;;;;;;;;;5030186;28;20048;-62
2022/10/27 08:39:12;;;;;;;11.20;7.20;;;;;;;;;;5031639;28;20048;-62
2022/10/27 08:41:46;;;;;;;14.27;6.90;;;;;;;;;;5031036;28;20054;-62
2022/10/27 08:44:26;;;;;;;13.63;6.87;;;;;;;;;;5031511;28;20055;-62
2022/10/27 08:47:04;;;;;;;13.93;6.90;;;;;;;;;;5031247;28;20041;-62
2022/10/27 08:49:33;;;;;;;11.97;6.50;;;;;;;;;;5031447;28;20068;-62
2022/10/27 08:52:02;;;;;;;12.77;6.63;;;;;;;;;;5031008;28;20043;-62
2022/10/27 08:54:28;;;;;;;15.27;6.33;;;;;;;;;;5030814;28;20048;-62
2022/10/27 08:56:57;;;;;;;13.30;6.50;;;;;;;;;;5031281;28;20048;-62
2022/10/27 08:59:24;;;;;;;9.53;6.07;;;;;;;;;;5031230;28;20041;-62
2022/10/27 09:02:01;;;;;;;11.00;5.27;;;;;;;;;;5029578;28;20061;-62
2022/10/27 09:04:46;;;;;;;7.50;5.20;;;;;;;;;;5030882;28;20053;-62
2022/10/27 09:07:21;;;;;;;10.37;5.10;;;;;;;;;;5030526;28;20510;-62
2022/10/27 09:10:02;;;;;;;12.67;5.33;;;;;;;;;;5030738;28;20091;-62
2022/10/27 09:12:31;;;;;;;9.13;4.77;;;;;;;;;;5030929;28;20107;-62
2022/10/27 09:15:23;;;;;;;9.77;4.93;;;;;;;;;;5030908;28;20248;-62
2022/10/27 09:17:49;;;;;;;10.00;4.53;;;;;;;;;;5030736;28;20492;-62
2022/10/27 09:20:24;;;;;;;8.03;4.17;;;;;;;;;;5029981;28;20045;-62
2022/10/27 09:22:51;;;;;;;7.13;4.50;;;;;;;;;;5030667;28;20045;-62
2022/10/27 09:25:21;;;;;;;8.90;4.17;;;;;;;;;;5030641;28;20463;-62
2022/10/27 09:27:55;;;;;;;6.70;4.27;;;;;;;;;;5030568;28;20049;-62
2022/10/27 09:30:21;;;;;;;10.17;3.90;;;;;;;;;;5029914;28;20095;-63
2022/10/27 09:32:53;;;;;;;7.60;4.07;;;;;;;;;;5030457;28;20095;-62
2022/10/27 09:35:24;;;;;;;10.70;4.10;;;;;;;;;;5030229;28;20511;-62
2022/10/27 09:37:51;;;;;;;10.07;4.83;;;;;;;;;;5030576;28;20049;-62
2022/10/27 09:40:20;;;;;;;11.13;4.00;;;;;;;;;;5029677;28;20045;-63
2022/10/27 09:42:48;;;;;;;10.33;3.73;;;;;;;;;;5029637;28;20045;-62
2022/10/27 09:45:15;;;;;;;12.60;4.67;;;;;;;;;;5030213;28;20087;-63
2022/10/27 09:47:43;;;;;;;7.87;3.73;;;;;;;;;;5029999;28;20128;-63
2022/10/27 09:50:16;;;;;;;10.43;4.67;;;;;;;;;;5030306;28;20053;-62
2022/10/27 09:52:43;;;;;;;9.27;3.97;;;;;;;;;;5030209;28;20045;-63
2022/10/27 09:55:10;;;;;;;10.57;4.47;;;;;;;;;;5030116;28;20081;-63
2022/10/27 09:57:38;;;;;;;5.77;3.50;;;;;;;;;;5029340;28;20053;-62
2022/10/27 10:00:08;;;;;;;9.27;3.60;;;;;;;;;;5029659;28;20056;-63
2022/10/27 10:02:36;;;;;;;5.97;3.07;;;;;;;;;;5029886;28;20372;-62
2022/10/27 10:05:06;;;;;;;6.17;2.70;;;;;;;;;;5029459;28;20479;-62
2022/10/27 10:07:34;;;;;;;7.47;2.93;;;;;;;;;;5029789;28;20131;-62
2022/10/27 10:10:05;;;;;;;7.60;2.73;;;;;;;;;;5030004;28;20055;-62
2022/10/27 10:12:31;;;;;;;7.10;3.00;;;;;;;;;;5028286;28;20053;-62
2022/10/27 10:15:09;;;;;;;5.30;2.00;;;;;;;;;;5029710;28;20045;-63
2022/10/27 10:17:36;;;;;;;8.47;2.00;;;;;;;;;;5029512;28;20496;-63
2022/10/27 10:20:02;;;;;;;11.87;3.23;;;;;;;;;;5029494;28;20045;-62
2022/10/27 10:22:30;;;;;;;7.17;2.30;;;;;;;;;;5029299;28;20041;-62
2022/10/27 10:24:58;;;;;;;5.97;2.30;;;;;;;;;;5028303;28;20052;-63
2022/10/27 10:27:31;;;;;;;5.87;1.80;;;;;;;;;;5029175;28;20107;-63
2022/10/27 10:29:59;;;;;;;8.70;2.30;;;;;;;;;;5029564;28;20096;-62
2022/10/27 10:32:27;;;;;;;7.23;2.73;;;;;;;;;;5029457;28;20048;-62
2022/10/27 10:34:53;;;;;;;6.13;2.03;;;;;;;;;;5029019;28;20088;-62
2022/10/27 10:37:33;;;;;;;7.93;2.03;;;;;;;;;;5029243;28;20051;-62
2022/10/27 10:40:11;;;;;;;5.97;1.50;;;;;;;;;;5028812;28;20079;-63
2022/10/27 10:42:37;;;;;;;5.57;2.03;;;;;;;;;;5029217;28;20046;-62
2022/10/27 10:45:17;;;;;;;5.40;1.13;;;;;;;;;;5029406;28;20169;-63
2022/10/27 10:47:46;;;;;;;6.33;2.23;;;;;;;;;;5028843;28;20529;-63
2022/10/27 10:50:13;;;;;;;3.77;1.70;;;;;;;;;;5028975;28;20077;-62
2022/10/27 10:52:40;;;;;;;3.60;1.33;;;;;;;;;;5027945;28;20048;-63
2022/10/27 10:55:07;;;;;;;6.17;2.23;;;;;;;;;;5027505;28;20455;-63
2022/10/27 10:57:38;;;;;;;4.60;1.30;;;;;;;;;;5028132;28;20128;-62
2022/10/27 11:00:06;;;;;;;4.20;1.20;;;;;;;;;;5028736;28;20046;-63
2022/10/27 11:02:33;;;;;;;4.50;1.30;;;;;;;;;;5029060;28;20053;-63
2022/10/27 11:05:10;;;;;;;4.20;1.20;;;;;;;;;;5028528;28;20411;-63
2022/10/27 11:07:36;;;;;;;4.77;1.63;;;;;;;;;;5028235;28;20041;-62
2022/10/27 11:10:06;;;;;;;6.67;1.70;;;;;;;;;;5028600;28;20084;-62
2022/10/27 11:12:48;;;;;;;7.10;2.30;;;;;;;;;;5085265;27;20475;-61
2022/10/27 11:15:17;;;;;;;5.67;1.90;;;;;;;;;;5085176;28;20056;-61
2022/10/27 11:17:45;;;;;;;3.00;1.23;;;;;;;;;;5084699;28;20545;-61
2022/10/27 11:20:20;;;;;;;6.50;1.03;;;;;;;;;;5085011;28;20548;-61
2022/10/27 11:22:47;;;;;;;5.70;1.33;;;;;;;;;;5085359;28;20047;-61
2022/10/27 11:25:40;;;;;;;5.50;1.50;;;;;;;;;;5084692;28;20040;-61
2022/10/27 11:28:10;;;;;;;4.27;1.30;;;;;;;;;;5082411;28;20044;-61
2022/10/27 11:30:40;;;;;;;4.77;1.60;;;;;;;;;;5084603;28;20558;-61
2022/10/27 11:33:15;;;;;;;4.97;1.13;;;;;;;;;;5085118;28;20067;-61
2022/10/27 11:35:49;;;;;;;8.37;1.83;;;;;;;;;;5084776;28;20063;-61
2022/10/27 11:38:35;;;;;;;5.17;1.70;;;;;;;;;;5083037;28;20055;-61
2022/10/27 11:41:31;;;;;;;4.97;1.50;;;;;;;;;;5084529;28;20044;-61
2022/10/27 11:44:03;;;;;;;4.67;1.10;;;;;;;;;;5075623;28;20252;-61
2022/10/27 11:46:33;;;;;;;4.35;1.38;;;;;;;;;;5084754;28;20048;-61
2022/10/27 11:48:59;;;;;;;4.37;1.33;;;;;;;;;;5083872;28;20062;-61
2022/10/27 11:51:33;;;;;;;4.13;1.20;;;;;;;;;;5084741;28;20101;-61
2022/10/27 11:54:00;;;;;;;7.43;1.30;;;;;;;;;;5084380;28;20483;-61
2022/10/27 11:56:35;;;;;;;2.90;1.00;;;;;;;;;;5084826;28;20086;-61
2022/10/27 11:59:27;;;;;;;5.00;1.23;;;;;;;;;;5084431;28;20048;-61
2022/10/27 12:02:14;;;;;;;5.13;1.07;;;;;;;;;;5076072;28;20048;-61
2022/10/27 12:04:44;;;;;;;8.63;1.17;;;;;;;;;;5083525;28;20044;-61
2022/10/27 12:07:10;;;;;;;3.40;1.27;;;;;;;;;;5084317;28;20056;-61
2022/10/27 12:09:36;;;;;;;3.90;1.30;;;;;;;;;;5084133;28;20052;-61
2022/10/27 12:12:11;;;;;;;4.23;1.27;;;;;;;;;;5083988;28;21038;-61
2022/10/27 12:14:43;;;;;;;4.23;1.37;;;;;;;;;;5083971;28;20044;-61
2022/10/27 12:17:09;;;;;;;7.15;1.10;;;;;;;;;;5083541;28;20413;-61
2022/10/27 12:19:38;;;;;;;4.23;1.60;;;;;;;;;;5084125;28;20056;-61
2022/10/27 12:22:20;;;;;;;5.30;1.27;;;;;;;;;;5079969;28;20048;-61
2022/10/27 12:25:04;;;;;;;4.97;1.10;;;;;;;;;;5070442;28;20052;-61
2022/10/27 12:27:33;;;;;;;4.63;1.40;;;;;;;;;;5070014;28;20055;-61
2022/10/27 12:30:03;;;;;;;4.53;1.30;;;;;;;;;;5070130;28;20051;-61
2022/10/27 12:32:55;;;;;;;7.30;1.43;;;;;;;;;;5070072;28;20052;-61
2022/10/27 12:35:27;;;;;;;4.37;1.67;;;;;;;;;;5068260;28;20110;-61
2022/10/27 12:37:59;;;;;;;6.33;1.53;;;;;;;;;;5070283;28;20399;-61
2022/10/27 12:40:30;;;;;;;3.30;1.13;;;;;;;;;;5070010;28;20387;-61
2022/10/27 12:42:56;;;;;;;6.60;1.93;;;;;;;;;;5070046;28;20329;-61
2022/10/27 12:45:41;;;;;;;2.70;1.10;;;;;;;;;;5069876;28;20041;-61
2022/10/27 12:48:25;;;;;;;2.93;1.20;;;;;;;;;;5065297;28;20056;-61
2022/10/27 12:51:17;;;;;;;5.27;1.20;;;;;;;;;;5066245;28;20514;-61
2022/10/27 12:53:45;;;;;;;3.63;1.00;;;;;;;;;;5052965;28;20052;-61
2022/10/27 12:56:30;;;;;;;8.40;1.63;;;;;;;;;;5062193;28;20106;-61
2022/10/27 12:59:14;;;;;;;4.33;0.77;;;;;;;;;;5050658;28;20045;-61
2022/10/27 13:01:58;;;;;;;4.23;1.10;;;;;;;;;;5052607;28;20093;-61
2022/10/27 13:04:30;;;;;;;6.67;1.00;;;;;;;;;;5069880;28;20040;-61
2022/10/27 13:07:10;;;;;;;3.60;0.82;;;;;;;;;;5050815;28;20098;-61
2022/10/27 13:09:54;;;;;;;3.57;1.33;;;;;;;;;;5049569;28;20048;-61
2022/10/27 13:12:36;;;;;;;2.50;1.00;;;;;;;;;;5049396;28;20068;-62
2022/10/27 13:15:12;;;;;;;4.18;1.38;;;;;;;;;;5049168;28;20577;-61
2022/10/27 13:17:56;;;;;;;6.77;1.27;;;;;;;;;;5049820;28;20056;-61
2022/10/27 13:20:38;;;;;;;4.27;0.83;;;;;;;;;;5049613;28;20044;-61
2022/10/27 13:23:10;;;;;;;5.47;1.33;;;;;;;;;;5049453;28;20053;-61
2022/10/27 13:25:39;;;;;;;4.80;1.20;;;;;;;;;;5049072;28;20045;-61
2022/10/27 13:28:11;;;;;;;4.73;1.00;;;;;;;;;;5049061;28;20323;-61
2022/10/27 13:30:40;;;;;;;6.60;1.37;;;;;;;;;;5049150;28;20033;-61
2022/10/27 13:33:26;;;;;;;4.27;0.90;;;;;;;;;;5049020;28;20363;-61
2022/10/27 13:36:12;;;;;;;3.97;1.10;;;;;;;;;;5048292;28;20044;-61
2022/10/27 13:38:38;;;;;;;3.70;1.17;;;;;;;;;;5049966;28;20179;-61
2022/10/27 13:41:04;;;;;;;5.53;1.30;;;;;;;;;;5049250;28;20045;-61
2022/10/27 13:43:33;;;;;;;8.00;1.33;;;;;;;;;;5048650;28;20053;-61
2022/10/27 13:45:59;;;;;;;6.93;1.23;;;;;;;;;;5049097;28;20455;-61
2022/10/27 13:48:25;;;;;;;6.07;2.30;;;;;;;;;;5048950;28;20045;-61
2022/10/27 13:50:51;;;;;;;3.40;1.40;;;;;;;;;;5048777;28;20060;-61
2022/10/27 13:53:18;;;;;;;6.43;1.40;;;;;;;;;;5047679;28;20080;-61
2022/10/27 13:55:44;;;;;;;6.73;1.17;;;;;;;;;;5048691;28;20052;-61
2022/10/27 13:58:19;;;;;;;3.67;1.67;;;;;;;;;;5049309;28;20055;-61
2022/10/27 14:01:04;;;;;;;8.03;1.20;;;;;;;;;;5049274;28;20053;-61
2022/10/27 14:03:36;;;;;;;8.27;2.10;;;;;;;;;;5048491;28;20048;-61
2022/10/27 14:06:02;;;;;;;4.43;1.10;;;;;;;;;;5048747;28;20048;-61
2022/10/27 14:08:33;;;;;;;3.70;1.13;;;;;;;;;;5048819;28;20509;-61
2022/10/27 14:11:00;;;;;;;2.90;1.00;;;;;;;;;;5057484;28;20063;-61
2022/10/27 14:13:30;;;;;;;4.30;1.20;;;;;;;;;;5067845;28;20056;-61
2022/10/27 14:15:59;;;;;;;5.70;1.30;;;;;;;;;;5067046;28;20048;-61
2022/10/27 14:18:28;;;;;;;4.40;1.10;;;;;;;;;;5068324;28;20049;-61
2022/10/27 14:20:55;;;;;;;7.13;1.40;;;;;;;;;;5067111;28;20194;-61
2022/10/27 14:23:21;;;;;;;7.97;1.83;;;;;;;;;;5067778;28;20283;-61
2022/10/27 14:25:47;;;;;;;5.93;1.33;;;;;;;;;;5068377;28;20048;-61
2022/10/27 14:28:18;;;;;;;4.67;1.57;;;;;;;;;;5067993;28;20052;-61
2022/10/27 14:30:45;;;;;;;5.70;1.50;;;;;;;;;;5066492;28;20075;-61
2022/10/27 14:33:20;;;;;;;6.17;1.20;;;;;;;;;;5061929;28;20044;-61
2022/10/27 14:35:47;;;;;;;4.10;1.67;;;;;;;;;;5067778;28;20395;-61
2022/10/27 14:38:18;;;;;;;5.50;2.97;;;;;;;;;;5067689;28;20366;-61
2022/10/27 14:40:44;;;;;;;8.77;1.70;;;;;;;;;;5055637;28;20053;-61